Flight Track Log - Related Links

Times and Time Zones

All times are in EDT time to prevent confusion due to time zone crossing. See the SWA652 flight status page for this flight to view local times or setup timezone preferences in your user account.

Time Position Orientation Groundspeed Altitude Reporting Facility
EDT Latitude Longitude Course Direction KTS MPH feet Rate Location/Type
Fri 08:14:04 PM 41.3272 -81.8772 181° South 217 250 4,600  Level Cleveland Center
Fri 08:14:34 PM 41.3025 -81.8656 160° South 272 313 5,400 2,656 Climbing Cleveland Center
Fri 08:15:05 PM 41.2822 -81.8100 116° Southeast 285 328 7,300 2,750 Climbing Cleveland Center
Fri 08:16:34 PM 41.2400 -81.6489 109° East 321 369 10,900 2,738 Climbing Cleveland Center
Fri 08:17:34 PM 41.2036 -81.5214 111° Southeast 350 403 14,100 2,950 Climbing Cleveland Center
Fri 08:18:34 PM 41.1250 -81.4514 146° Southeast 350 403 16,800 2,800 Climbing Cleveland Center
Fri 08:19:34 PM 41.0211 -81.3922 157° South 367 422 19,700 2,550 Climbing Cleveland Center
Fri 08:20:34 PM 40.9131 -81.3278 156° South 410 472 21,900 2,450 Climbing Cleveland Center
Fri 08:21:34 PM 40.8261 -81.2197 137° Southeast 434 499 24,600 2,450 Climbing Cleveland Center
Fri 08:22:34 PM 40.7519 -81.0792 125° Southeast 445 512 26,800 1,200 Climbing Cleveland Center
Fri 08:23:34 PM 40.6733 -80.9253 124° Southeast 462 532 27,000 100 Climbing Cleveland Center
Fri 08:24:34 PM 40.5986 -80.7856 125° Southeast 467 537 27,000  Level Cleveland Center
Fri 08:25:34 PM 40.5236 -80.6486 126° Southeast 472 543 27,000  Level Cleveland Center
Fri 08:26:34 PM 40.4508 -80.5150 126° Southeast 466 536 27,000  Level Cleveland Center
Fri 08:27:34 PM 40.3797 -80.3814 125° Southeast 460 529 27,000  Level Cleveland Center
Fri 08:28:34 PM 40.3064 -80.2536 127° Southeast 449 517 27,000  Level Cleveland Center
Fri 08:29:34 PM 40.2331 -80.1208 126° Southeast 449 517 27,000  Level Cleveland Center
Fri 08:30:34 PM 40.1678 -80.0044 126° Southeast 444 511 27,000  Level Cleveland Center
Fri 08:32:16 PM 40.0492 -79.7817 125° Southeast 448 516 27,000  Level Washington Center
Fri 08:33:17 PM 39.9767 -79.6528 126° Southeast 448 516 27,000  Level Washington Center
Fri 08:34:17 PM 39.8961 -79.5075 126° Southeast 448 516 27,000  Level Washington Center
Fri 08:35:16 PM 39.8231 -79.3767 126° Southeast 448 516 27,000 -454 Level Washington Center
Fri 08:36:16 PM 39.7519 -79.2486 126° Southeast 443 510 26,100 -942 Descending Washington Center
Fri 08:37:17 PM 39.6767 -79.1153 126° Southeast 448 516 25,100 -541 Descending Washington Center
Fri 08:38:18 PM 39.6353 -78.9625 109° East 442 509 25,000 -50 Descending Washington Center
Fri 08:39:16 PM 39.6039 -78.8183 106° East 448 516 25,000  Level Washington Center
Fri 08:40:17 PM 39.5667 -78.6497 106° East 454 522 25,000 -1,180 Level Washington Center
Fri 08:41:18 PM 39.5308 -78.4919 106° East 446 513 22,600 -2,826 Descending Washington Center
Fri 08:42:18 PM 39.4989 -78.3456 106° East 435 501 19,300 -3,000 Descending Washington Center
Fri 08:43:16 PM 39.4664 -78.2100 107° East 419 482 16,700 -2,168 Descending Washington Center
Fri 08:44:17 PM 39.4361 -78.0744 106° East 399 459 15,000 -934 Descending Washington Center
Fri 08:45:18 PM 39.4261 -77.9369 95° East 385 443 14,800 -605 Descending Washington Center
Fri 08:46:16 PM 39.4308 -77.8003 87° East 373 429 13,800 -1,008 Descending Washington Center
Fri 08:47:17 PM 39.4375 -77.6661 86° East 373 429 12,800 -992 Descending Washington Center
Fri 08:48:17 PM 39.4397 -77.5344 89° East 368 423 11,800 -893 Descending Washington Center
Fri 08:49:18 PM 39.4436 -77.4083 88° East 363 418 11,000 -490 Descending Washington Center
Fri 08:49:55 PM 39.4500 -77.3333 84° East 309 356 11,000 -117 Level Potomac TRACON
Fri 08:51:01 PM 39.4667 -77.2167 79° East 299 344 10,800 -619 Descending Potomac TRACON
Fri 08:52:01 PM 39.4833 -77.1167 78° East 301 346 9,700 -1,158 Descending Potomac TRACON
Fri 08:52:55 PM 39.4667 -77.0167 102° East 297 342 8,600 -1,357 Descending Potomac TRACON
Fri 08:53:56 PM 39.4500 -76.9167 102° East 297 342 7,100 -1,438 Descending Potomac TRACON
Fri 08:54:56 PM 39.3833 -76.8500 142° Southeast 282 325 5,700 -1,300 Descending Potomac TRACON
Fri 08:55:56 PM 39.3167 -76.9000 210° Southwest 273 314 4,500 -1,100 Descending Potomac TRACON
Fri 08:56:56 PM 39.2667 -76.9333 207° Southwest 245 282 3,500 -700 Descending Potomac TRACON
Fri 08:57:56 PM 39.2000 -76.9167 169° South 212 244 3,100 -300 Descending Potomac TRACON
Fri 08:58:56 PM 39.1833 -76.8667 113° Southeast 184 212 2,900 -619 Descending Potomac TRACON
Fri 09:00:02 PM 39.1833 -76.8000 90° East 163 188 1,800 -905 Descending Potomac TRACON
Fri 09:01:02 PM 39.1833 -76.7500 90° East 132 152 1,000 -694 Descending Potomac TRACON
Fri 09:02:03 PM 39.1833 -76.7000 90° East 131 151 400 -590 Descending Potomac TRACON
Fri 09:04:00 PM 39.1667 -76.6667 150° Southeast  Level FlightAware Approximate
Fri 09:11:00 PM 39.1754 -76.6683 150° Southeast  Level Estimated
Fri 09:12:00 PM 39.1754 -76.6683 150° Southeast  Level Estimated
Fri 09:13:00 PM 39.1754 -76.6683 150° Southeast  Level Estimated

Login

Don't have an account? Register now (free) for customized features, flight alerts, and more!